Time;durP1;ratioP1;P1;durP2;ratioP2;P2;SDS_P1;SDS_P2;PMS_P1;PMS_P2;Temp;Humidity;BMP_temperature;BMP_pressure;BME280_temperature;BME280_humidity;BME280_pressure;Samples;Min_cycle;Max_cycle;Signal;HPM_P1;HPM_P2
2021/12/27 00:00:20;;;;;;;28.70;24.53;;;-0.10;99.90;;;;;;5006207;28;20041;-71
2021/12/27 00:02:53;;;;;;;29.23;26.13;;;-0.20;99.90;;;;;;5031504;28;20045;-70
2021/12/27 00:05:19;;;;;;;29.10;25.47;;;-0.20;99.90;;;;;;5032511;28;20053;-70
2021/12/27 00:07:48;;;;;;;30.33;26.33;;;-0.10;99.90;;;;;;5014387;28;20496;-71
2021/12/27 00:10:15;;;;;;;29.07;25.90;;;-0.20;99.90;;;;;;5026806;28;20519;-71
2021/12/27 00:12:41;;;;;;;29.33;25.60;;;-0.10;99.90;;;;;;5016797;28;20111;-71
2021/12/27 00:15:08;;;;;;;28.37;25.43;;;-0.10;99.90;;;;;;5040185;28;20163;-70
2021/12/27 00:17:33;;;;;;;29.67;25.87;;;-0.10;99.90;;;;;;5029997;28;20057;-70
2021/12/27 00:19:59;;;;;;;28.20;25.20;;;-0.20;99.90;;;;;;5027914;28;20059;-71
2021/12/27 00:22:28;;;;;;;29.87;26.23;;;-0.10;99.90;;;;;;5009786;28;20435;-70
2021/12/27 00:24:54;;;;;;;30.17;26.47;;;-0.10;99.90;;;;;;5037241;28;20091;-70
2021/12/27 00:27:20;;;;;;;28.07;24.80;;;-0.10;99.90;;;;;;5047211;28;20084;-70
2021/12/27 00:29:46;;;;;;;27.80;24.33;;;-0.10;99.90;;;;;;5048606;28;20052;-70
2021/12/27 00:32:12;;;;;;;28.80;25.40;;;-0.10;99.90;;;;;;5025931;28;20128;-71
2021/12/27 00:34:38;;;;;;;28.73;24.87;;;-0.10;99.90;;;;;;5029609;28;20049;-71
2021/12/27 00:37:05;;;;;;;30.67;26.40;;;-0.10;99.90;;;;;;5037097;28;20628;-71
2021/12/27 00:39:32;;;;;;;30.73;27.10;;;-0.10;99.90;;;;;;5047764;28;20519;-71
2021/12/27 00:42:02;;;;;;;28.23;25.23;;;-0.10;99.90;;;;;;5038490;28;20049;-70
2021/12/27 00:44:28;;;;;;;30.37;26.67;;;-0.10;99.90;;;;;;5012001;28;20500;-70
2021/12/27 00:46:55;;;;;;;29.97;26.00;;;-0.10;99.90;;;;;;5011907;28;20045;-70
2021/12/27 00:49:21;;;;;;;30.17;26.93;;;0.00;99.90;;;;;;5044156;28;20053;-71
2021/12/27 00:51:47;;;;;;;29.20;25.87;;;0.00;99.90;;;;;;5019010;28;20044;-71
2021/12/27 00:54:14;;;;;;;30.17;26.83;;;-0.10;99.90;;;;;;5046064;28;20048;-71
2021/12/27 00:56:40;;;;;;;31.03;27.63;;;0.00;99.90;;;;;;5029209;28;20561;-71
2021/12/27 00:59:06;;;;;;;32.97;28.27;;;0.00;99.90;;;;;;5029287;28;20041;-70
2021/12/27 01:01:32;;;;;;;30.60;27.17;;;0.00;99.90;;;;;;5027781;28;20299;-71
2021/12/27 01:04:01;;;;;;;31.03;27.70;;;0.00;99.90;;;;;;5045786;28;20032;-71
2021/12/27 01:06:27;;;;;;;30.13;26.90;;;0.00;99.90;;;;;;5013775;28;20041;-72
2021/12/27 01:08:53;;;;;;;30.23;26.63;;;-0.10;99.90;;;;;;5030244;28;20187;-72
2021/12/27 01:11:25;;;;;;;31.33;27.07;;;0.00;99.90;;;;;;5011701;28;20571;-72
2021/12/27 01:16:48;;;;;;;33.50;28.47;;;0.00;99.90;;;;;;4988257;28;20621;-70
2021/12/27 01:19:14;;;;;;;31.30;27.03;;;0.00;99.90;;;;;;5029179;28;20076;-71
2021/12/27 01:21:40;;;;;;;30.97;26.70;;;0.00;99.90;;;;;;5046949;28;20377;-70
2021/12/27 01:24:06;;;;;;;30.63;27.33;;;0.00;99.90;;;;;;5045033;28;20389;-70
2021/12/27 01:26:32;;;;;;;31.00;27.53;;;0.00;99.90;;;;;;5046378;28;20057;-72
2021/12/27 01:29:07;;;;;;;31.17;27.87;;;0.00;99.90;;;;;;5045722;28;20048;-70
2021/12/27 01:31:33;;;;;;;31.57;27.67;;;0.00;99.90;;;;;;5045105;28;20052;-71
2021/12/27 01:34:04;;;;;;;32.20;28.70;;;0.00;99.90;;;;;;5028762;28;20041;-71
2021/12/27 01:36:33;;;;;;;31.03;27.70;;;0.00;99.90;;;;;;5029022;28;20048;-71
2021/12/27 01:39:00;;;;;;;31.70;28.37;;;0.00;99.90;;;;;;5028358;28;20041;-71
2021/12/27 01:41:26;;;;;;;33.50;28.50;;;0.00;99.90;;;;;;5026735;28;20511;-72
2021/12/27 01:43:54;;;;;;;32.33;28.40;;;0.00;99.90;;;;;;5028825;28;20139;-71
2021/12/27 01:46:23;;;;;;;32.80;28.17;;;0.00;99.90;;;;;;5044703;28;20076;-70
2021/12/27 01:48:55;;;;;;;34.20;29.23;;;0.00;99.90;;;;;;5028891;28;20048;-71
2021/12/27 01:51:23;;;;;;;33.47;29.20;;;0.00;99.90;;;;;;5045922;28;20803;-71
2021/12/27 01:53:49;;;;;;;30.53;27.23;;;0.00;99.90;;;;;;5011471;28;20083;-71
2021/12/27 01:56:17;;;;;;;31.93;28.10;;;0.00;99.90;;;;;;5027802;28;20387;-71
2021/12/27 01:58:44;;;;;;;32.20;28.70;;;0.10;99.90;;;;;;5040487;28;20053;-72
2021/12/27 02:01:12;;;;;;;31.87;28.33;;;0.10;99.90;;;;;;5027341;28;20102;-71
2021/12/27 02:03:40;;;;;;;31.57;28.17;;;0.10;99.90;;;;;;5045237;28;20120;-70
2021/12/27 02:06:07;;;;;;;32.27;28.83;;;0.00;99.90;;;;;;5045835;28;20037;-70
2021/12/27 02:08:35;;;;;;;33.70;30.00;;;0.10;99.90;;;;;;5042002;28;20057;-71
2021/12/27 02:11:03;;;;;;;31.63;28.13;;;0.10;99.90;;;;;;5043537;28;20053;-70
2021/12/27 02:13:32;;;;;;;33.87;29.03;;;0.10;99.90;;;;;;5059479;28;20133;-70
2021/12/27 02:16:01;;;;;;;32.97;29.47;;;0.10;99.90;;;;;;5041313;28;20411;-70
2021/12/27 02:18:27;;;;;;;32.87;29.33;;;0.10;99.90;;;;;;5044431;28;20095;-71
2021/12/27 02:20:52;;;;;;;33.70;30.13;;;0.00;99.90;;;;;;5040905;28;20045;-70
2021/12/27 02:23:19;;;;;;;34.13;30.47;;;0.00;99.90;;;;;;5042477;28;20204;-71
2021/12/27 02:25:50;;;;;;;34.13;29.47;;;0.10;99.90;;;;;;5011202;28;20080;-71
2021/12/27 02:28:18;;;;;;;33.83;30.17;;;0.10;99.90;;;;;;5026809;28;20151;-71
2021/12/27 02:30:50;;;;;;;33.27;29.73;;;0.10;99.90;;;;;;5027183;28;20072;-70
2021/12/27 02:33:16;;;;;;;34.13;30.50;;;0.10;99.90;;;;;;5043489;28;20077;-70
2021/12/27 02:35:51;;;;;;;33.13;29.60;;;0.10;99.90;;;;;;5044392;28;20110;-70
2021/12/27 02:38:21;;;;;;;34.97;30.83;;;0.10;99.90;;;;;;5043789;28;20131;-70
2021/12/27 02:40:47;;;;;;;34.90;29.70;;;0.10;99.90;;;;;;5044015;28;20061;-70
2021/12/27 02:43:15;;;;;;;33.50;29.90;;;0.10;99.90;;;;;;5041344;28;20049;-70
2021/12/27 02:45:49;;;;;;;32.90;29.43;;;0.10;99.90;;;;;;5027692;28;20443;-70
2021/12/27 02:48:18;;;;;;;34.97;31.17;;;0.20;99.90;;;;;;5027964;28;20080;-72
2021/12/27 02:50:46;;;;;;;34.67;30.93;;;0.20;99.90;;;;;;5028809;28;20055;-70
2021/12/27 02:53:12;;;;;;;36.47;32.50;;;0.20;99.90;;;;;;5028623;28;20037;-70
2021/12/27 02:55:40;;;;;;;35.80;30.70;;;0.20;99.90;;;;;;5028695;28;20052;-72
2021/12/27 02:58:06;;;;;;;35.97;31.97;;;0.20;99.90;;;;;;5041854;28;20108;-70
2021/12/27 03:00:46;;;;;;;34.23;30.53;;;0.20;99.90;;;;;;5041856;28;20095;-70
2021/12/27 03:03:12;;;;;;;34.63;30.85;;;0.20;99.90;;;;;;5040402;28;20512;-70
2021/12/27 03:05:40;;;;;;;33.30;29.60;;;0.30;99.90;;;;;;5046660;28;20053;-72
2021/12/27 03:08:11;;;;;;;34.27;29.73;;;0.20;99.90;;;;;;5044532;28;20069;-72
2021/12/27 03:10:37;;;;;;;34.10;30.37;;;0.20;99.90;;;;;;5013502;28;20045;-72
2021/12/27 03:13:06;;;;;;;34.73;30.97;;;0.20;99.90;;;;;;5027372;28;20060;-72
2021/12/27 03:15:32;;;;;;;35.10;31.40;;;0.20;99.90;;;;;;5012529;28;20037;-72
2021/12/27 03:17:57;;;;;;;35.97;31.77;;;0.30;99.90;;;;;;5041204;28;20125;-71
2021/12/27 03:20:26;;;;;;;34.00;30.33;;;0.30;99.90;;;;;;5044817;28;20049;-70
2021/12/27 03:22:52;;;;;;;35.33;31.57;;;0.30;99.90;;;;;;5045195;28;20045;-70
2021/12/27 03:25:21;;;;;;;35.87;30.87;;;0.30;99.90;;;;;;5038901;28;20111;-71
2021/12/27 03:27:48;;;;;;;35.20;31.40;;;0.30;99.90;;;;;;5045585;28;20056;-71
2021/12/27 03:30:19;;;;;;;35.47;31.77;;;0.30;99.90;;;;;;5044560;28;20131;-71
2021/12/27 03:32:45;;;;;;;35.30;31.00;;;0.30;99.90;;;;;;5045499;28;20624;-72
2021/12/27 03:35:15;;;;;;;34.13;30.23;;;0.30;99.90;;;;;;5028001;28;20099;-72
2021/12/27 03:37:47;;;;;;;33.63;30.08;;;0.30;99.90;;;;;;5046898;28;20045;-72
2021/12/27 03:40:15;;;;;;;34.77;30.77;;;0.30;99.90;;;;;;5044359;28;20118;-72
2021/12/27 03:42:41;;;;;;;33.80;30.17;;;0.30;99.90;;;;;;5043701;28;20055;-71
2021/12/27 03:45:09;;;;;;;35.47;31.70;;;0.30;99.90;;;;;;5028313;28;20049;-70
2021/12/27 03:47:37;;;;;;;36.03;31.57;;;0.30;99.90;;;;;;5045678;28;20049;-72
2021/12/27 03:50:04;;;;;;;35.67;30.47;;;0.40;99.90;;;;;;5028830;28;20049;-71
2021/12/27 03:52:30;;;;;;;36.00;32.17;;;0.40;99.90;;;;;;5045002;28;20053;-71
2021/12/27 03:54:56;;;;;;;39.33;32.70;;;0.40;99.90;;;;;;5045899;28;20045;-70
2021/12/27 03:57:22;;;;;;;36.47;32.57;;;0.40;99.90;;;;;;5032133;28;20076;-70
2021/12/27 03:59:54;;;;;;;36.17;32.37;;;0.40;99.90;;;;;;5049080;28;20059;-70
2021/12/27 04:02:20;;;;;;;35.70;31.93;;;0.40;99.90;;;;;;5030405;28;20053;-70
2021/12/27 04:04:45;;;;;;;37.27;33.37;;;0.40;99.90;;;;;;5050422;28;20079;-70
2021/12/27 04:07:12;;;;;;;35.80;31.97;;;0.40;99.90;;;;;;5011242;28;20528;-70
2021/12/27 04:09:38;;;;;;;36.27;32.40;;;0.40;99.90;;;;;;5012799;28;20103;-71
2021/12/27 04:12:05;;;;;;;37.00;32.93;;;0.40;99.90;;;;;;5053410;28;20080;-70
2021/12/27 04:14:31;;;;;;;36.00;32.10;;;0.40;99.90;;;;;;5049386;28;20400;-70
2021/12/27 04:16:59;;;;;;;35.80;31.93;;;0.40;99.90;;;;;;5047206;28;20049;-70
2021/12/27 04:19:25;;;;;;;37.03;33.23;;;0.40;99.90;;;;;;5045456;28;20086;-70
2021/12/27 04:21:51;;;;;;;36.10;32.10;;;0.40;99.90;;;;;;5045381;28;20103;-71
2021/12/27 04:24:17;;;;;;;36.00;32.10;;;0.40;99.90;;;;;;5030995;28;20064;-70
2021/12/27 04:26:44;;;;;;;36.27;32.23;;;0.40;99.90;;;;;;5031948;28;20068;-70
2021/12/27 04:29:10;;;;;;;36.83;32.83;;;0.40;99.90;;;;;;5047311;28;20053;-73
2021/12/27 04:31:36;;;;;;;34.70;30.97;;;0.40;99.90;;;;;;5042994;28;20092;-71
2021/12/27 04:34:02;;;;;;;35.17;31.17;;;0.40;99.90;;;;;;5028065;28;20052;-72
2021/12/27 04:36:27;;;;;;;36.97;32.70;;;0.50;99.90;;;;;;5027670;28;20115;-70
2021/12/27 04:38:53;;;;;;;35.17;31.50;;;0.40;99.90;;;;;;5028675;28;20139;-71
2021/12/27 04:41:22;;;;;;;35.83;31.93;;;0.50;99.90;;;;;;5026929;28;20076;-72
2021/12/27 04:43:48;;;;;;;35.37;31.50;;;0.50;99.90;;;;;;5011984;28;20049;-72
2021/12/27 04:46:14;;;;;;;36.50;32.47;;;0.50;99.90;;;;;;4994493;28;20054;-72
2021/12/27 04:48:40;;;;;;;35.97;32.23;;;0.50;99.90;;;;;;5011740;28;20195;-72
2021/12/27 04:51:06;;;;;;;36.93;32.90;;;0.40;99.90;;;;;;5012041;28;20816;-72
2021/12/27 04:53:32;;;;;;;36.83;32.90;;;0.40;99.90;;;;;;5011062;28;20090;-72
2021/12/27 04:56:01;;;;;;;39.03;34.80;;;0.40;99.90;;;;;;5012156;28;20084;-72
2021/12/27 04:58:30;;;;;;;35.23;31.50;;;0.40;99.90;;;;;;5012240;28;20492;-72
2021/12/27 05:00:56;;;;;;;36.13;32.40;;;0.40;99.90;;;;;;5029353;28;20040;-72
2021/12/27 05:03:22;;;;;;;38.17;33.17;;;0.40;99.90;;;;;;5047557;28;20049;-72
2021/12/27 05:05:48;;;;;;;37.40;33.37;;;0.40;99.90;;;;;;5046152;28;20110;-72
2021/12/27 05:08:14;;;;;;;38.63;34.00;;;0.40;99.90;;;;;;5029150;28;20044;-72
2021/12/27 05:10:40;;;;;;;38.53;34.23;;;0.40;99.90;;;;;;5048168;28;20396;-72
2021/12/27 05:13:06;;;;;;;41.33;36.30;;;0.40;99.90;;;;;;5029089;28;20050;-72
2021/12/27 05:15:32;;;;;;;41.17;36.60;;;0.40;99.90;;;;;;4995128;28;20061;-72
2021/12/27 05:18:02;;;;;;;44.17;37.53;;;0.40;99.90;;;;;;5028872;28;20400;-72
2021/12/27 05:20:31;;;;;;;46.17;38.83;;;0.40;99.90;;;;;;5030949;28;20083;-72
2021/12/27 05:22:57;;;;;;;45.60;39.90;;;0.40;99.90;;;;;;5016388;28;20514;-72
2021/12/27 05:25:22;;;;;;;49.60;40.70;;;0.40;99.90;;;;;;5014816;28;20056;-72
2021/12/27 05:27:49;;;;;;;49.63;41.97;;;0.40;99.90;;;;;;5015783;28;20053;-72
2021/12/27 05:30:19;;;;;;;48.67;41.13;;;0.40;99.90;;;;;;5013845;28;20755;-72
2021/12/27 05:32:45;;;;;;;52.45;42.33;;;0.30;99.90;;;;;;5031538;28;20107;-72
2021/12/27 05:35:13;;;;;;;53.80;43.73;;;0.40;99.90;;;;;;4998581;28;20045;-72
2021/12/27 05:37:40;;;;;;;50.60;41.57;;;0.40;99.90;;;;;;5027388;28;20160;-72
2021/12/27 05:40:14;;;;;;;51.37;43.13;;;0.40;99.90;;;;;;5027924;28;20619;-72
2021/12/27 05:42:40;;;;;;;46.47;40.50;;;0.30;99.90;;;;;;5027009;28;20559;-71
2021/12/27 05:45:07;;;;;;;48.53;41.80;;;0.40;99.90;;;;;;5027336;28;20128;-71
2021/12/27 05:47:33;;;;;;;49.70;42.37;;;0.40;99.90;;;;;;5009814;28;20057;-72
2021/12/27 05:49:59;;;;;;;50.10;42.53;;;0.40;99.90;;;;;;5028303;28;20048;-71
2021/12/27 05:52:25;;;;;;;49.73;40.17;;;0.40;99.90;;;;;;5026451;28;20049;-71
2021/12/27 05:54:51;;;;;;;47.17;41.17;;;0.40;99.90;;;;;;5026936;28;20041;-71
2021/12/27 05:57:17;;;;;;;50.57;42.23;;;0.40;99.90;;;;;;5009603;28;20388;-71
2021/12/27 05:59:42;;;;;;;52.13;42.30;;;0.40;99.90;;;;;;5027122;28;20064;-71
2021/12/27 06:02:08;;;;;;;50.30;43.57;;;0.40;99.90;;;;;;5026468;28;20071;-72
2021/12/27 06:04:34;;;;;;;50.73;42.13;;;0.40;99.90;;;;;;5029165;28;20059;-72
2021/12/27 06:07:00;;;;;;;49.60;41.33;;;0.40;99.90;;;;;;5046113;28;20048;-71
2021/12/27 06:09:25;;;;;;;51.23;42.47;;;0.40;99.90;;;;;;5045995;28;20048;-72
2021/12/27 06:11:51;;;;;;;52.00;42.93;;;0.40;99.90;;;;;;5025181;28;20061;-72
2021/12/27 06:14:17;;;;;;;55.43;44.17;;;0.50;99.90;;;;;;5013978;28;20439;-72
2021/12/27 06:16:43;;;;;;;55.27;44.90;;;0.50;99.90;;;;;;5024923;28;20049;-72
2021/12/27 06:19:09;;;;;;;55.50;44.13;;;0.50;99.90;;;;;;5027171;28;20051;-70
2021/12/27 06:21:36;;;;;;;59.80;46.87;;;0.50;99.90;;;;;;5042326;28;20130;-70
2021/12/27 06:24:03;;;;;;;59.90;47.50;;;0.50;99.90;;;;;;5028663;28;20053;-71
2021/12/27 06:26:30;;;;;;;62.13;46.77;;;0.50;99.90;;;;;;5010717;28;20045;-71
2021/12/27 06:28:55;;;;;;;63.67;48.90;;;0.50;99.90;;;;;;5044758;28;20488;-71
2021/12/27 06:31:22;;;;;;;67.77;48.83;;;0.40;99.90;;;;;;4994671;28;20090;-71
2021/12/27 06:33:48;;;;;;;62.10;49.20;;;0.50;99.90;;;;;;5027077;28;20076;-72
2021/12/27 06:36:18;;;;;;;69.67;51.57;;;0.50;99.90;;;;;;5045641;28;20103;-72
2021/12/27 06:38:44;;;;;;;65.63;48.70;;;0.50;99.90;;;;;;5012795;28;20049;-73
2021/12/27 06:41:09;;;;;;;66.40;52.07;;;0.50;99.90;;;;;;5010321;28;20037;-71
2021/12/27 06:43:35;;;;;;;70.23;50.20;;;0.50;99.90;;;;;;5008349;28;20411;-70
2021/12/27 06:46:01;;;;;;;67.57;50.40;;;0.60;99.90;;;;;;4995420;28;20478;-73
2021/12/27 06:48:27;;;;;;;66.17;49.93;;;0.60;99.90;;;;;;5043664;28;20090;-73
2021/12/27 06:50:53;;;;;;;70.40;52.80;;;0.60;99.90;;;;;;5043189;28;20495;-71
2021/12/27 06:53:20;;;;;;;66.50;50.07;;;0.60;99.90;;;;;;5044392;28;20052;-70
2021/12/27 06:55:47;;;;;;;72.53;51.87;;;0.50;99.90;;;;;;5041429;28;20510;-70
2021/12/27 06:58:13;;;;;;;68.23;50.93;;;0.60;99.90;;;;;;5027927;28;20129;-73
2021/12/27 07:00:39;;;;;;;76.33;54.07;;;0.60;99.90;;;;;;5010744;28;20048;-71
2021/12/27 07:03:05;;;;;;;72.70;51.90;;;0.60;99.90;;;;;;5027754;28;20045;-71
2021/12/27 07:05:31;;;;;;;73.47;52.37;;;0.60;99.90;;;;;;5026853;28;20046;-71
2021/12/27 07:07:57;;;;;;;73.00;52.50;;;0.60;99.90;;;;;;5044234;28;20048;-71
2021/12/27 07:10:23;;;;;;;71.07;51.57;;;0.60;99.90;;;;;;5010087;28;20098;-71
2021/12/27 07:12:50;;;;;;;81.93;54.53;;;0.60;99.90;;;;;;5026695;28;20834;-71
2021/12/27 07:15:16;;;;;;;74.70;53.00;;;0.60;99.90;;;;;;5041511;28;20060;-72
2021/12/27 07:17:42;;;;;;;74.30;51.13;;;0.60;99.90;;;;;;5024995;28;20502;-72
2021/12/27 07:20:09;;;;;;;77.43;54.33;;;0.70;99.90;;;;;;5027559;28;20041;-72
2021/12/27 07:22:35;;;;;;;77.27;53.57;;;0.60;99.90;;;;;;5026094;28;20045;-72
2021/12/27 07:25:01;;;;;;;85.57;57.67;;;0.70;99.90;;;;;;5010047;28;20037;-71
2021/12/27 07:27:27;;;;;;;85.73;55.60;;;0.60;99.90;;;;;;5043008;28;20102;-71
2021/12/27 07:29:53;;;;;;;83.20;55.97;;;0.60;99.90;;;;;;5044649;28;20135;-71
2021/12/27 07:32:21;;;;;;;86.17;57.17;;;0.70;99.90;;;;;;5030860;28;20041;-71
2021/12/27 07:34:48;;;;;;;96.23;57.20;;;0.70;99.90;;;;;;5048924;28;20055;-71
2021/12/27 07:37:16;;;;;;;88.77;56.97;;;0.70;99.90;;;;;;5048410;28;20068;-71
2021/12/27 07:39:42;;;;;;;88.30;56.23;;;0.70;99.90;;;;;;5030950;28;20174;-70
2021/12/27 07:42:08;;;;;;;94.23;57.67;;;0.80;99.90;;;;;;5046973;28;20045;-70
2021/12/27 07:44:34;;;;;;;93.73;57.63;;;0.80;99.90;;;;;;5047473;28;20048;-71
2021/12/27 07:47:01;;;;;;;89.83;57.80;;;0.80;99.90;;;;;;5029802;28;20071;-72
2021/12/27 07:49:27;;;;;;;94.50;57.87;;;0.80;99.90;;;;;;5046835;28;20052;-72
2021/12/27 07:51:52;;;;;;;88.43;56.33;;;0.70;99.90;;;;;;5032141;28;20135;-72
2021/12/27 07:54:18;;;;;;;86.93;57.53;;;0.80;99.90;;;;;;5013640;28;20041;-71
2021/12/27 07:56:44;;;;;;;90.77;56.10;;;0.80;99.90;;;;;;5031611;28;20049;-73
2021/12/27 07:59:10;;;;;;;88.20;56.23;;;0.80;99.90;;;;;;5047469;28;20079;-72
2021/12/27 08:01:38;;;;;;;90.63;56.23;;;0.80;99.90;;;;;;5030043;28;20040;-72
2021/12/27 08:04:05;;;;;;;84.23;55.17;;;0.90;99.90;;;;;;5047039;28;20114;-72
2021/12/27 08:06:32;;;;;;;90.70;57.37;;;0.80;99.90;;;;;;5029606;28;20491;-73
2021/12/27 08:09:00;;;;;;;95.77;55.70;;;0.80;99.90;;;;;;5043397;28;20051;-72
2021/12/27 08:11:26;;;;;;;88.20;55.93;;;0.80;99.90;;;;;;5008131;28;20132;-71
2021/12/27 08:13:53;;;;;;;100.60;60.70;;;0.90;99.90;;;;;;5029666;28;20076;-73
2021/12/27 08:16:24;;;;;;;99.57;58.60;;;0.80;99.90;;;;;;5027786;28;20061;-71
2021/12/27 08:18:52;;;;;;;106.87;58.20;;;0.90;99.90;;;;;;5040496;28;20114;-73
2021/12/27 08:21:22;;;;;;;111.97;62.00;;;0.90;99.90;;;;;;5042730;28;20539;-71
2021/12/27 08:23:48;;;;;;;111.15;62.67;;;1.00;99.90;;;;;;5027820;28;20057;-72
2021/12/27 08:26:15;;;;;;;108.87;62.83;;;0.90;99.90;;;;;;5019468;28;20459;-71
2021/12/27 08:28:42;;;;;;;116.80;63.23;;;0.90;99.90;;;;;;5033422;28;20129;-71
2021/12/27 08:31:08;;;;;;;116.67;65.00;;;0.90;99.90;;;;;;5037439;28;20475;-71
2021/12/27 08:33:34;;;;;;;123.33;64.50;;;1.00;99.90;;;;;;5019899;28;20045;-71
2021/12/27 08:36:00;;;;;;;125.20;65.23;;;0.90;99.90;;;;;;5023809;28;20485;-71
2021/12/27 08:38:26;;;;;;;134.23;66.13;;;0.90;99.90;;;;;;5030507;28;20387;-71
2021/12/27 08:40:51;;;;;;;132.60;66.97;;;1.00;99.90;;;;;;5040349;28;20057;-71
2021/12/27 08:43:17;;;;;;;128.73;65.13;;;1.00;99.90;;;;;;5012463;28;20124;-71
2021/12/27 08:45:43;;;;;;;133.53;66.27;;;1.00;99.90;;;;;;5000233;28;20127;-71
2021/12/27 08:48:09;;;;;;;137.30;67.07;;;1.00;99.90;;;;;;5035038;28;20049;-73
2021/12/27 08:50:37;;;;;;;137.03;66.57;;;1.10;99.90;;;;;;5046483;28;20072;-73
2021/12/27 08:53:06;;;;;;;136.33;65.97;;;1.00;99.90;;;;;;5035067;28;20076;-73
2021/12/27 08:55:37;;;;;;;138.97;65.53;;;1.00;99.90;;;;;;5034616;28;20049;-73
2021/12/27 08:58:04;;;;;;;150.10;68.72;;;1.10;99.90;;;;;;5035877;28;20450;-73
2021/12/27 09:00:30;;;;;;;146.40;68.40;;;1.10;99.90;;;;;;5030962;28;20097;-73
2021/12/27 09:02:56;;;;;;;146.03;68.07;;;1.10;99.90;;;;;;5053181;28;20076;-71
2021/12/27 09:05:25;;;;;;;149.53;70.13;;;1.10;99.90;;;;;;5047678;28;20041;-71
2021/12/27 09:07:51;;;;;;;159.67;72.30;;;1.20;99.90;;;;;;5017246;28;20111;-71
2021/12/27 09:10:17;;;;;;;165.80;72.87;;;1.10;99.90;;;;;;5017195;28;20485;-71
2021/12/27 09:12:44;;;;;;;163.30;73.07;;;1.10;99.90;;;;;;5009192;28;20087;-71
2021/12/27 09:15:10;;;;;;;168.00;73.27;;;1.10;99.90;;;;;;5028957;28;20128;-71
2021/12/27 09:17:37;;;;;;;163.13;71.83;;;1.20;99.90;;;;;;5038234;28;20582;-71
2021/12/27 09:20:05;;;;;;;164.73;70.87;;;1.10;99.90;;;;;;5049656;28;20521;-72
2021/12/27 09:22:30;;;;;;;162.80;73.43;;;1.20;99.90;;;;;;5029841;28;20115;-71
2021/12/27 09:24:57;;;;;;;168.93;72.30;;;1.20;99.90;;;;;;5023287;28;20045;-71
2021/12/27 09:27:22;;;;;;;185.33;75.73;;;1.20;99.90;;;;;;5020632;28;20560;-71
2021/12/27 09:29:49;;;;;;;178.73;73.80;;;1.20;99.90;;;;;;5030127;28;20065;-71
2021/12/27 09:32:15;;;;;;;170.80;72.20;;;1.30;99.90;;;;;;5036444;28;20041;-71
2021/12/27 09:34:41;;;;;;;171.17;72.30;;;1.30;99.90;;;;;;5033665;28;20532;-71
2021/12/27 09:37:08;;;;;;;178.83;72.30;;;1.30;99.90;;;;;;5034691;28;20499;-71
2021/12/27 09:39:35;;;;;;;166.40;69.80;;;1.30;99.90;;;;;;5032374;28;20061;-74
2021/12/27 09:42:01;;;;;;;186.10;75.07;;;1.30;99.90;;;;;;5032299;28;20159;-73
2021/12/27 09:44:27;;;;;;;188.00;72.73;;;1.40;99.90;;;;;;5032247;28;20395;-74
2021/12/27 09:46:53;;;;;;;192.40;77.37;;;1.40;99.90;;;;;;5038885;28;20049;-74
2021/12/27 09:49:29;;;;;;;192.93;75.83;;;1.40;99.90;;;;;;5039918;28;20076;-71
2021/12/27 09:51:57;;;;;;;200.77;76.90;;;1.50;99.90;;;;;;5048022;28;20049;-71
2021/12/27 09:54:28;;;;;;;187.73;74.33;;;1.50;99.90;;;;;;5031306;28;20677;-72
2021/12/27 09:56:57;;;;;;;219.23;78.03;;;1.50;99.90;;;;;;5014151;28;20091;-71
2021/12/27 09:59:23;;;;;;;212.20;77.80;;;1.50;99.90;;;;;;5035797;28;20050;-71
2021/12/27 10:01:52;;;;;;;226.03;79.13;;;1.60;99.90;;;;;;5025979;28;20049;-72
2021/12/27 10:04:19;;;;;;;197.37;76.73;;;1.60;99.90;;;;;;5029293;28;20144;-71
2021/12/27 10:06:45;;;;;;;224.57;79.53;;;1.60;99.90;;;;;;5019016;28;20043;-71
2021/12/27 10:09:10;;;;;;;209.53;78.33;;;1.60;99.90;;;;;;5026764;28;20045;-71
2021/12/27 10:11:42;;;;;;;209.90;75.57;;;1.60;99.90;;;;;;5032647;28;20049;-71
2021/12/27 10:14:19;;;;;;;225.87;80.97;;;1.60;99.90;;;;;;5026944;28;20049;-71
2021/12/27 10:16:52;;;;;;;231.60;81.07;;;1.70;99.90;;;;;;5033389;28;20063;-73
2021/12/27 10:19:20;;;;;;;232.93;80.30;;;1.70;99.90;;;;;;5044980;28;20047;-74
2021/12/27 10:21:51;;;;;;;227.73;80.43;;;1.90;99.90;;;;;;5020231;28;20060;-74
2021/12/27 10:24:20;;;;;;;227.40;80.00;;;1.80;99.90;;;;;;5032376;28;20051;-73
2021/12/27 10:26:49;;;;;;;237.43;79.03;;;1.80;99.90;;;;;;5017444;28;20492;-73
2021/12/27 10:29:25;;;;;;;248.50;81.73;;;1.80;99.90;;;;;;5030949;28;20120;-71
2021/12/27 10:32:07;;;;;;;221.80;76.77;;;1.80;99.90;;;;;;5029898;28;20124;-71
2021/12/27 10:34:48;;;;;;;263.13;80.33;;;1.80;99.90;;;;;;5029874;28;20567;-71
2021/12/27 10:37:13;;;;;;;257.63;81.50;;;1.80;99.90;;;;;;5030403;28;20072;-71
2021/12/27 10:39:53;;;;;;;253.60;79.90;;;1.80;99.90;;;;;;5027342;28;20044;-71
2021/12/27 10:42:21;;;;;;;255.80;81.30;;;1.90;99.90;;;;;;5020886;28;20049;-71
2021/12/27 10:44:53;;;;;;;289.43;85.97;;;1.90;99.90;;;;;;5024913;28;20393;-71
2021/12/27 10:47:32;;;;;;;285.43;86.17;;;1.90;99.90;;;;;;5046844;28;20341;-73
2021/12/27 10:50:04;;;;;;;263.43;83.03;;;2.00;99.90;;;;;;5026367;28;20489;-70
2021/12/27 10:52:41;;;;;;;283.50;86.33;;;2.10;99.90;;;;;;5026501;28;20125;-70
2021/12/27 10:55:07;;;;;;;271.53;83.93;;;2.10;99.90;;;;;;5048295;28;20159;-70
2021/12/27 10:57:33;;;;;;;276.90;82.97;;;2.00;99.90;;;;;;5028868;28;20754;-73
2021/12/27 11:00:31;;;;;;;261.20;80.13;;;2.00;99.90;;;;;;5028036;28;20135;-70
2021/12/27 11:03:01;;;;;;;304.53;85.83;;;2.00;99.90;;;;;;5030432;28;20041;-73
2021/12/27 11:05:27;;;;;;;301.73;84.65;;;2.10;99.90;;;;;;5033493;28;20500;-70
2021/12/27 11:08:04;;;;;;;302.93;84.23;;;2.10;99.90;;;;;;5041963;28;20061;-70
2021/12/27 11:10:34;;;;;;;283.57;83.43;;;2.10;99.90;;;;;;5033686;28;20107;-74
2021/12/27 11:13:02;;;;;;;286.48;85.05;;;2.10;99.90;;;;;;5044999;28;20127;-73
2021/12/27 11:15:30;;;;;;;288.87;83.40;;;2.20;99.90;;;;;;5041211;28;20546;-72
2021/12/27 11:17:56;;;;;;;282.33;81.93;;;2.20;99.90;;;;;;5033240;28;20518;-73
2021/12/27 11:20:22;;;;;;;303.43;83.93;;;2.20;99.90;;;;;;5037397;28;20120;-72
2021/12/27 11:22:52;;;;;;;280.73;80.70;;;2.30;99.90;;;;;;5032520;28;20493;-73
2021/12/27 11:25:31;;;;;;;267.60;79.07;;;2.20;99.90;;;;;;5038030;28;20396;-73
2021/12/27 11:27:58;;;;;;;282.77;83.07;;;2.30;99.90;;;;;;5039432;28;20045;-72
2021/12/27 11:30:31;;;;;;;354.27;96.80;;;2.30;99.90;;;;;;5036735;28;20377;-72
2021/12/27 11:33:05;;;;;;;243.80;78.83;;;2.30;99.90;;;;;;5016906;28;20518;-73
2021/12/27 11:35:37;;;;;;;247.27;79.27;;;2.30;99.90;;;;;;5030759;28;20049;-72
2021/12/27 11:38:04;;;;;;;274.50;80.23;;;2.40;99.90;;;;;;5027994;28;20683;-72
2021/12/27 11:40:45;;;;;;;250.97;73.90;;;2.40;99.90;;;;;;5045199;28;20044;-73
2021/12/27 11:43:10;;;;;;;276.35;76.78;;;2.40;99.90;;;;;;5041376;28;20040;-72
2021/12/27 11:45:42;;;;;;;242.73;76.33;;;2.40;99.90;;;;;;5049830;28;20052;-73
2021/12/27 11:48:16;;;;;;;304.13;80.53;;;2.40;99.90;;;;;;5041669;28;20060;-73
2021/12/27 11:51:08;;;;;;;266.50;75.10;;;2.40;99.90;;;;;;5027015;28;20076;-72
2021/12/27 11:53:45;;;;;;;283.83;81.50;;;2.40;99.90;;;;;;5030114;28;20335;-73
2021/12/27 11:56:35;;;;;;;277.40;80.33;;;2.40;99.90;;;;;;5040678;28;20051;-73
2021/12/27 11:59:00;;;;;;;287.42;75.78;;;2.40;99.90;;;;;;5032864;28;20137;-73
2021/12/27 12:01:35;;;;;;;298.07;80.90;;;2.60;99.90;;;;;;5033668;28;20132;-70
2021/12/27 12:04:02;;;;;;;268.40;76.87;;;2.50;99.90;;;;;;5030272;28;20135;-71
2021/12/27 12:06:44;;;;;;;295.50;78.97;;;2.50;99.90;;;;;;5014355;28;20105;-71
2021/12/27 12:09:19;;;;;;;299.77;81.03;;;2.50;99.90;;;;;;5026730;28;20126;-70
2021/12/27 12:11:58;;;;;;;281.73;79.90;;;2.50;99.90;;;;;;5013253;28;20297;-71
2021/12/27 12:14:35;;;;;;;276.30;79.80;;;2.50;99.90;;;;;;5025506;28;20378;-73
2021/12/27 12:17:04;;;;;;;268.80;79.40;;;2.50;99.90;;;;;;5028802;28;20045;-73
2021/12/27 12:19:49;;;;;;;256.53;78.77;;;2.60;99.90;;;;;;5044758;28;20044;-70
2021/12/27 12:22:42;;;;;;;296.20;84.17;;;2.60;99.90;;;;;;5042634;28;20056;-70
2021/12/27 12:25:13;;;;;;;278.50;82.57;;;2.60;99.90;;;;;;5035354;28;20068;-71
2021/12/27 12:27:57;;;;;;;305.92;83.50;;;2.70;99.90;;;;;;5023799;28;20084;-70
2021/12/27 12:30:27;;;;;;;264.80;79.83;;;2.70;99.90;;;;;;5036219;28;20088;-73
2021/12/27 12:33:06;;;;;;;287.63;84.03;;;2.70;99.90;;;;;;5031908;28;20049;-73
2021/12/27 12:35:41;;;;;;;267.77;79.70;;;2.70;99.90;;;;;;5028084;28;20820;-73
2021/12/27 12:38:25;;;;;;;253.23;80.23;;;2.70;99.90;;;;;;5024113;28;20059;-71
2021/12/27 12:41:12;;;;;;;242.20;77.87;;;2.80;99.90;;;;;;5033026;28;20547;-71